Pertusola — IBER — position and weather

sailwx.info

Track history (hours):
 
Tides and Currents Weather Stations Pressure Air Temp Water Temp Dewpoint Dewpoint Depression Visibility Wind Speed Wind Dir Waves Ship Positions

Pertusola

Last reported at 2015-Apr-16 15:07 UTC. Time now 2015-Apr-19 09:29 UTC.
Position N 40°54' E 018°15'.

Length 145 m; draft 8.4 m.

Type: Ship (hazmat cat A). MMSI: 247399000.

Date/timePositionNaut miles runAvg speedWind from/ knotsBaromVisibWave heightAir tempDewpointWater temp
2015-Apr-16 15:07N 40°54' E 018°15'814.6
2015-Apr-16 14:33N 40°47' E 018°22'1514.5
2015-Apr-16 13:33N 40°35' E 018°33'1714.8
2015-Apr-16 12:25N 40°22' E 018°46'1214.3
2015-Apr-16 11:34N 40°10' E 018°47'1714.4
2015-Apr-16 10:21N 39°52' E 018°48'1114.3
2015-Apr-16 09:34N 39°41' E 018°48'1414.3
2015-Apr-16 08:33N 39°26' E 018°49'1714.6
2015-Apr-16 07:21N 39°09' E 018°50'2614.2
2015-Apr-16 05:31N 38°43' E 018°50'2814.1
2015-Apr-16 03:32N 38°15' E 018°52'  
2015-Apr-12 07:21N 36°21' E 015°15'1215.1
2015-Apr-12 06:31N 36°30' E 015°04'1515.1
2015-Apr-12 05:31N 36°36' E 014°46'1515.0
2015-Apr-12 04:33N 36°41' E 014°29'1515.2
2015-Apr-12 03:33N 36°47' E 014°12'1515.1
2015-Apr-12 02:33N 36°54' E 013°55'1515.5
2015-Apr-12 01:33N 37°01' E 013°38'1915.5
2015-Apr-12 00:18N 37°10' E 013°16'1614.7
2015-Apr-11 23:13N 37°18' E 012°59'2614.6
2015-Apr-11 21:26N 37°30' E 012°30'1314.4
2015-Apr-11 20:33N 37°39' E 012°18'1614.4
2015-Apr-11 19:26N 37°48' E 012°01'15914.6
2015-Apr-11 08:32N 37°60' E 008°40'1814.9
2015-Apr-11 07:18N 37°60' E 008°17'1114.6
2015-Apr-11 06:32N 37°58' E 008°03'1515.1
2015-Apr-11 05:33N 37°56' E 007°45'1615.7
2015-Apr-11 04:31N 37°52' E 007°24'1414.6
2015-Apr-11 03:32N 37°49' E 007°07'2014.9
2015-Apr-11 02:11N 37°45' E 006°42'6616.9
2015-Apr-10 22:17N 37°32' E 005°20'18 9.7
2015-Apr-10 20:27N 37°28' E 004°58'10214.7
2015-Apr-10 13:32N 37°08' E 002°53'1515.0
2015-Apr-10 12:33N 37°04' E 002°35'12415.1
2015-Apr-10 04:21N 36°40' E 000°03'4214.8
2015-Apr-10 01:33N 36°30' W 000°47'21913.7
2015-Apr-09 09:33N 36°00' W 005°17'8 7.6
2015-Apr-09 08:33N 36°06' W 005°23'3 2.2
2015-Apr-09 07:20N 36°09' W 005°23'0 0.1
2015-Apr-09 06:32N 36°09' W 005°22'0 0.0
2015-Apr-09 05:33N 36°09' W 005°22'0 0.0
2015-Apr-09 04:20N 36°09' W 005°22'0 0.1
2015-Apr-09 03:32N 36°09' W 005°22'0 0.0
2015-Apr-09 02:28N 36°09' W 005°23'0 0.0
2015-Apr-09 01:28N 36°09' W 005°23'0 0.0
2015-Apr-09 00:30N 36°09' W 005°23'0 0.2
2015-Apr-08 23:33N 36°09' W 005°22'0 0.0
2015-Apr-08 22:33N 36°09' W 005°22'5 5.1
2015-Apr-08 21:33N 36°05' W 005°18'8 0.2
2015-Apr-07 11:15N 36°04' W 005°08'913.0
2015-Apr-07 10:33N 35°60' W 005°18'  
Track history (hours):
 
Tides and Currents Weather Stations Pressure Air Temp Water Temp Dewpoint Dewpoint Depression Visibility Wind Speed Wind Dir Waves Ship Positions

Pertusola

Last reported at 2015-Apr-16 15:07 UTC. Time now 2015-Apr-19 09:29 UTC.
Position N 40°54' E 018°15'.

Length 145 m; draft 8.4 m.

Type: Ship (hazmat cat A). MMSI: 247399000.

Date/timePositionNaut miles runAvg speedWind from/ knotsBaromVisibWave heightAir tempDewpointWater temp
2015-Apr-16 15:07N 40°54' E 018°15'814.6
2015-Apr-16 14:33N 40°47' E 018°22'1514.5
2015-Apr-16 13:33N 40°35' E 018°33'1714.8
2015-Apr-16 12:25N 40°22' E 018°46'1214.3
2015-Apr-16 11:34N 40°10' E 018°47'1714.4
2015-Apr-16 10:21N 39°52' E 018°48'1114.3
2015-Apr-16 09:34N 39°41' E 018°48'1414.3
2015-Apr-16 08:33N 39°26' E 018°49'1714.6
2015-Apr-16 07:21N 39°09' E 018°50'2614.2
2015-Apr-16 05:31N 38°43' E 018°50'2814.1
2015-Apr-16 03:32N 38°15' E 018°52'  
2015-Apr-12 07:21N 36°21' E 015°15'1215.1
2015-Apr-12 06:31N 36°30' E 015°04'1515.1
2015-Apr-12 05:31N 36°36' E 014°46'1515.0
2015-Apr-12 04:33N 36°41' E 014°29'1515.2
2015-Apr-12 03:33N 36°47' E 014°12'1515.1
2015-Apr-12 02:33N 36°54' E 013°55'1515.5
2015-Apr-12 01:33N 37°01' E 013°38'1915.5
2015-Apr-12 00:18N 37°10' E 013°16'1614.7
2015-Apr-11 23:13N 37°18' E 012°59'2614.6
2015-Apr-11 21:26N 37°30' E 012°30'1314.4
2015-Apr-11 20:33N 37°39' E 012°18'1614.4
2015-Apr-11 19:26N 37°48' E 012°01'15914.6
2015-Apr-11 08:32N 37°60' E 008°40'1814.9
2015-Apr-11 07:18N 37°60' E 008°17'1114.6
2015-Apr-11 06:32N 37°58' E 008°03'1515.1
2015-Apr-11 05:33N 37°56' E 007°45'1615.7
2015-Apr-11 04:31N 37°52' E 007°24'1414.6
2015-Apr-11 03:32N 37°49' E 007°07'2014.9
2015-Apr-11 02:11N 37°45' E 006°42'6616.9
2015-Apr-10 22:17N 37°32' E 005°20'18 9.7
2015-Apr-10 20:27N 37°28' E 004°58'10214.7
2015-Apr-10 13:32N 37°08' E 002°53'1515.0
2015-Apr-10 12:33N 37°04' E 002°35'12415.1
2015-Apr-10 04:21N 36°40' E 000°03'4214.8
2015-Apr-10 01:33N 36°30' W 000°47'21913.7
2015-Apr-09 09:33N 36°00' W 005°17'8 7.6
2015-Apr-09 08:33N 36°06' W 005°23'3 2.2
2015-Apr-09 07:20N 36°09' W 005°23'0 0.1
2015-Apr-09 06:32N 36°09' W 005°22'0 0.0
2015-Apr-09 05:33N 36°09' W 005°22'0 0.0
2015-Apr-09 04:20N 36°09' W 005°22'0 0.1
2015-Apr-09 03:32N 36°09' W 005°22'0 0.0
2015-Apr-09 02:28N 36°09' W 005°23'0 0.0
2015-Apr-09 01:28N 36°09' W 005°23'0 0.0
2015-Apr-09 00:30N 36°09' W 005°23'0 0.2
2015-Apr-08 23:33N 36°09' W 005°22'0 0.0
2015-Apr-08 22:33N 36°09' W 005°22'5 5.1
2015-Apr-08 21:33N 36°05' W 005°18'8 0.2
2015-Apr-07 11:15N 36°04' W 005°08'913.0
2015-Apr-07 10:33N 35°60' W 005°18'  

Dump ship's entire track history